Terminal Aerodrome Forecast
Issued by NWS

Current Version | Previous Version | Text Only | Print | Product List | Glossary Off
Versions: 1 2 3 4 5 6 7 8 9 10 11 12 13 14 15

621
FTUS41 KPBZ 261125
TAFMGW
TAF
KMGW 261125Z 2612/2712 16005KT P6SM OVC100
      TEMPO 2613/2616 4SM -SHRA BKN040
     FM261600 21007KT P6SM VCTS BKN040CB
     FM262200 22005KT P6SM BKN080=

USA.gov is the U.S. government's official web portal to all federal, state and local government web resources and services.